sensor_id;sensor_type;location;lat;lon;timestamp;temperature;humidity
13960;DHT22;7052;51.050;3.716;2024-03-06T00:02:13;7.90;99.90
13960;DHT22;7052;51.050;3.716;2024-03-06T00:04:40;7.80;99.90
13960;DHT22;7052;51.050;3.716;2024-03-06T00:07:10;7.80;99.90
13960;DHT22;7052;51.050;3.716;2024-03-06T00:09:37;7.80;99.90
13960;DHT22;7052;51.050;3.716;2024-03-06T00:12:04;7.80;99.90
13960;DHT22;7052;51.050;3.716;2024-03-06T00:14:35;7.70;99.90
13960;DHT22;7052;51.050;3.716;2024-03-06T00:17:02;7.70;99.90
13960;DHT22;7052;51.050;3.716;2024-03-06T00:19:30;7.70;99.90
13960;DHT22;7052;51.050;3.716;2024-03-06T00:21:59;7.70;99.90
13960;DHT22;7052;51.050;3.716;2024-03-06T00:24:29;7.60;99.90
13960;DHT22;7052;51.050;3.716;2024-03-06T00:26:59;7.60;99.90
13960;DHT22;7052;51.050;3.716;2024-03-06T00:29:27;7.60;99.90
13960;DHT22;7052;51.050;3.716;2024-03-06T00:31:54;7.60;99.90
13960;DHT22;7052;51.050;3.716;2024-03-06T00:34:21;7.50;99.90
13960;DHT22;7052;51.050;3.716;2024-03-06T00:36:47;7.50;99.90
13960;DHT22;7052;51.050;3.716;2024-03-06T00:39:16;7.50;99.90
13960;DHT22;7052;51.050;3.716;2024-03-06T00:41:45;7.40;99.90
13960;DHT22;7052;51.050;3.716;2024-03-06T00:44:14;7.40;99.90
13960;DHT22;7052;51.050;3.716;2024-03-06T00:46:43;7.40;99.90
13960;DHT22;7052;51.050;3.716;2024-03-06T00:49:10;7.40;99.90
13960;DHT22;7052;51.050;3.716;2024-03-06T00:51:39;7.30;99.90
13960;DHT22;7052;51.050;3.716;2024-03-06T00:54:06;7.30;99.90
13960;DHT22;7052;51.050;3.716;2024-03-06T00:56:42;7.30;99.90
13960;DHT22;7052;51.050;3.716;2024-03-06T00:59:10;7.30;99.90
13960;DHT22;7052;51.050;3.716;2024-03-06T01:01:37;7.30;99.90
13960;DHT22;7052;51.050;3.716;2024-03-06T01:04:04;7.30;99.90
13960;DHT22;7052;51.050;3.716;2024-03-06T01:06:32;7.20;99.90
13960;DHT22;7052;51.050;3.716;2024-03-06T01:08:59;7.20;99.90
13960;DHT22;7052;51.050;3.716;2024-03-06T01:11:26;7.20;99.90
13960;DHT22;7052;51.050;3.716;2024-03-06T01:13:54;7.20;99.90
13960;DHT22;7052;51.050;3.716;2024-03-06T01:16:23;7.20;99.90
13960;DHT22;7052;51.050;3.716;2024-03-06T01:18:51;7.20;99.90
13960;DHT22;7052;51.050;3.716;2024-03-06T01:21:18;7.20;99.90
13960;DHT22;7052;51.050;3.716;2024-03-06T01:23:46;7.10;99.90
13960;DHT22;7052;51.050;3.716;2024-03-06T01:26:13;7.10;99.90
13960;DHT22;7052;51.050;3.716;2024-03-06T01:28:40;7.10;99.90
13960;DHT22;7052;51.050;3.716;2024-03-06T01:31:07;7.10;99.90
13960;DHT22;7052;51.050;3.716;2024-03-06T01:33:37;7.10;99.90
13960;DHT22;7052;51.050;3.716;2024-03-06T01:36:04;7.00;99.90
13960;DHT22;7052;51.050;3.716;2024-03-06T01:38:31;7.00;99.90
13960;DHT22;7052;51.050;3.716;2024-03-06T01:40:58;6.90;99.90
13960;DHT22;7052;51.050;3.716;2024-03-06T01:43:26;6.90;99.90
13960;DHT22;7052;51.050;3.716;2024-03-06T01:45:55;6.80;99.90
13960;DHT22;7052;51.050;3.716;2024-03-06T01:48:23;6.80;99.90
13960;DHT22;7052;51.050;3.716;2024-03-06T01:50:56;6.80;99.90
13960;DHT22;7052;51.050;3.716;2024-03-06T01:53:24;6.80;99.90
13960;DHT22;7052;51.050;3.716;2024-03-06T01:55:54;6.70;99.90
13960;DHT22;7052;51.050;3.716;2024-03-06T01:58:21;6.60;99.90
13960;DHT22;7052;51.050;3.716;2024-03-06T02:00:49;6.60;99.90
13960;DHT22;7052;51.050;3.716;2024-03-06T02:03:17;6.60;99.90
13960;DHT22;7052;51.050;3.716;2024-03-06T02:05:45;6.60;99.90
13960;DHT22;7052;51.050;3.716;2024-03-06T02:08:15;6.60;99.90
13960;DHT22;7052;51.050;3.716;2024-03-06T02:10:42;6.50;99.90
13960;DHT22;7052;51.050;3.716;2024-03-06T02:13:12;6.50;99.90
13960;DHT22;7052;51.050;3.716;2024-03-06T02:15:39;6.50;99.90
13960;DHT22;7052;51.050;3.716;2024-03-06T02:18:07;6.40;99.90
13960;DHT22;7052;51.050;3.716;2024-03-06T02:20:39;6.40;99.90
13960;DHT22;7052;51.050;3.716;2024-03-06T02:23:06;6.40;99.90
13960;DHT22;7052;51.050;3.716;2024-03-06T02:25:34;6.40;99.90
13960;DHT22;7052;51.050;3.716;2024-03-06T02:28:02;6.30;99.90
13960;DHT22;7052;51.050;3.716;2024-03-06T02:30:30;6.30;99.90
13960;DHT22;7052;51.050;3.716;2024-03-06T02:33:02;6.30;99.90
13960;DHT22;7052;51.050;3.716;2024-03-06T02:35:29;6.30;99.90
13960;DHT22;7052;51.050;3.716;2024-03-06T02:38:00;6.30;99.90
13960;DHT22;7052;51.050;3.716;2024-03-06T02:40:27;6.30;99.90
13960;DHT22;7052;51.050;3.716;2024-03-06T02:42:55;6.30;99.90
13960;DHT22;7052;51.050;3.716;2024-03-06T02:45:22;6.20;99.90
13960;DHT22;7052;51.050;3.716;2024-03-06T02:47:50;6.20;99.90
13960;DHT22;7052;51.050;3.716;2024-03-06T02:50:18;6.20;99.90
13960;DHT22;7052;51.050;3.716;2024-03-06T02:52:46;6.20;99.90
13960;DHT22;7052;51.050;3.716;2024-03-06T02:55:15;6.20;99.90
13960;DHT22;7052;51.050;3.716;2024-03-06T02:57:42;6.20;99.90
13960;DHT22;7052;51.050;3.716;2024-03-06T03:00:10;6.20;99.90
13960;DHT22;7052;51.050;3.716;2024-03-06T03:02:42;6.20;99.90
13960;DHT22;7052;51.050;3.716;2024-03-06T03:05:13;6.20;99.90
13960;DHT22;7052;51.050;3.716;2024-03-06T03:07:39;6.20;99.90
13960;DHT22;7052;51.050;3.716;2024-03-06T03:10:09;6.10;99.90
13960;DHT22;7052;51.050;3.716;2024-03-06T03:12:39;6.10;99.90
13960;DHT22;7052;51.050;3.716;2024-03-06T03:15:06;6.10;99.90
13960;DHT22;7052;51.050;3.716;2024-03-06T03:17:35;6.10;99.90
13960;DHT22;7052;51.050;3.716;2024-03-06T03:20:02;6.10;99.90
13960;DHT22;7052;51.050;3.716;2024-03-06T03:22:36;6.10;99.90
13960;DHT22;7052;51.050;3.716;2024-03-06T03:25:06;6.00;99.90
13960;DHT22;7052;51.050;3.716;2024-03-06T03:27:34;6.00;99.90
13960;DHT22;7052;51.050;3.716;2024-03-06T03:30:17;6.00;99.90
13960;DHT22;7052;51.050;3.716;2024-03-06T03:32:50;6.00;99.90
13960;DHT22;7052;51.050;3.716;2024-03-06T03:35:17;6.00;99.90
13960;DHT22;7052;51.050;3.716;2024-03-06T03:37:46;6.00;99.90
13960;DHT22;7052;51.050;3.716;2024-03-06T03:40:13;5.90;99.90
13960;DHT22;7052;51.050;3.716;2024-03-06T03:42:43;5.90;99.90
13960;DHT22;7052;51.050;3.716;2024-03-06T03:45:11;5.90;99.90
13960;DHT22;7052;51.050;3.716;2024-03-06T03:47:40;5.90;99.90
13960;DHT22;7052;51.050;3.716;2024-03-06T03:50:11;5.90;99.90
13960;DHT22;7052;51.050;3.716;2024-03-06T03:52:40;5.90;99.90
13960;DHT22;7052;51.050;3.716;2024-03-06T03:55:09;5.90;99.90
13960;DHT22;7052;51.050;3.716;2024-03-06T03:57:36;5.90;99.90
13960;DHT22;7052;51.050;3.716;2024-03-06T04:00:04;5.80;99.90
13960;DHT22;7052;51.050;3.716;2024-03-06T04:02:36;5.80;99.90
13960;DHT22;7052;51.050;3.716;2024-03-06T04:05:06;5.80;99.90
13960;DHT22;7052;51.050;3.716;2024-03-06T04:07:33;5.80;99.90
13960;DHT22;7052;51.050;3.716;2024-03-06T04:10:00;5.70;99.90
13960;DHT22;7052;51.050;3.716;2024-03-06T04:12:29;5.70;99.90
13960;DHT22;7052;51.050;3.716;2024-03-06T04:14:56;5.70;99.90
13960;DHT22;7052;51.050;3.716;2024-03-06T04:17:23;5.70;99.90
13960;DHT22;7052;51.050;3.716;2024-03-06T04:19:52;5.70;99.90
13960;DHT22;7052;51.050;3.716;2024-03-06T04:22:23;5.70;99.90
13960;DHT22;7052;51.050;3.716;2024-03-06T04:24:50;5.60;99.90
13960;DHT22;7052;51.050;3.716;2024-03-06T04:27:17;5.60;99.90
13960;DHT22;7052;51.050;3.716;2024-03-06T04:29:44;5.60;99.90
13960;DHT22;7052;51.050;3.716;2024-03-06T04:32:12;5.60;99.90
13960;DHT22;7052;51.050;3.716;2024-03-06T04:34:39;5.60;99.90
13960;DHT22;7052;51.050;3.716;2024-03-06T04:37:07;5.50;99.90
13960;DHT22;7052;51.050;3.716;2024-03-06T04:39:35;5.60;99.90
13960;DHT22;7052;51.050;3.716;2024-03-06T04:42:04;5.50;99.90
13960;DHT22;7052;51.050;3.716;2024-03-06T04:44:37;5.60;99.90
13960;DHT22;7052;51.050;3.716;2024-03-06T04:47:04;5.60;99.90
13960;DHT22;7052;51.050;3.716;2024-03-06T04:49:33;5.50;99.90
13960;DHT22;7052;51.050;3.716;2024-03-06T04:52:01;5.50;99.90
13960;DHT22;7052;51.050;3.716;2024-03-06T04:54:29;5.60;99.90
13960;DHT22;7052;51.050;3.716;2024-03-06T04:56:57;5.60;99.90
13960;DHT22;7052;51.050;3.716;2024-03-06T04:59:24;5.50;99.90
13960;DHT22;7052;51.050;3.716;2024-03-06T05:01:54;5.50;99.90
13960;DHT22;7052;51.050;3.716;2024-03-06T05:04:20;5.50;99.90
13960;DHT22;7052;51.050;3.716;2024-03-06T05:06:47;5.40;99.90
13960;DHT22;7052;51.050;3.716;2024-03-06T05:09:15;5.50;99.90
13960;DHT22;7052;51.050;3.716;2024-03-06T05:11:42;5.50;99.90
13960;DHT22;7052;51.050;3.716;2024-03-06T05:14:11;5.50;99.90
13960;DHT22;7052;51.050;3.716;2024-03-06T05:16:38;5.40;99.90
13960;DHT22;7052;51.050;3.716;2024-03-06T05:19:05;5.50;99.90
13960;DHT22;7052;51.050;3.716;2024-03-06T05:21:32;5.40;99.90
13960;DHT22;7052;51.050;3.716;2024-03-06T05:24:02;5.40;99.90
13960;DHT22;7052;51.050;3.716;2024-03-06T05:26:29;5.40;99.90
13960;DHT22;7052;51.050;3.716;2024-03-06T05:28:58;5.40;99.90
13960;DHT22;7052;51.050;3.716;2024-03-06T05:31:31;5.40;99.90
13960;DHT22;7052;51.050;3.716;2024-03-06T05:34:01;5.40;99.90
13960;DHT22;7052;51.050;3.716;2024-03-06T05:36:29;5.40;99.90
13960;DHT22;7052;51.050;3.716;2024-03-06T05:38:56;5.30;99.90
13960;DHT22;7052;51.050;3.716;2024-03-06T05:41:23;5.40;99.90
13960;DHT22;7052;51.050;3.716;2024-03-06T05:43:52;5.30;99.90
13960;DHT22;7052;51.050;3.716;2024-03-06T05:46:19;5.40;99.90
13960;DHT22;7052;51.050;3.716;2024-03-06T05:48:47;5.30;99.90
13960;DHT22;7052;51.050;3.716;2024-03-06T05:51:17;5.30;99.90
13960;DHT22;7052;51.050;3.716;2024-03-06T05:53:44;5.30;99.90
13960;DHT22;7052;51.050;3.716;2024-03-06T05:56:14;5.30;99.90
13960;DHT22;7052;51.050;3.716;2024-03-06T05:58:42;5.30;99.90
13960;DHT22;7052;51.050;3.716;2024-03-06T06:01:13;5.30;99.90
13960;DHT22;7052;51.050;3.716;2024-03-06T06:03:41;5.30;99.90
13960;DHT22;7052;51.050;3.716;2024-03-06T06:06:10;5.30;99.90
13960;DHT22;7052;51.050;3.716;2024-03-06T06:08:38;5.20;99.90
13960;DHT22;7052;51.050;3.716;2024-03-06T06:11:05;5.30;99.90
13960;DHT22;7052;51.050;3.716;2024-03-06T06:13:33;5.30;99.90
13960;DHT22;7052;51.050;3.716;2024-03-06T06:16:00;5.20;99.90
13960;DHT22;7052;51.050;3.716;2024-03-06T06:18:29;5.20;99.90
13960;DHT22;7052;51.050;3.716;2024-03-06T06:20:57;5.20;99.90
13960;DHT22;7052;51.050;3.716;2024-03-06T06:23:34;5.20;99.90
13960;DHT22;7052;51.050;3.716;2024-03-06T06:26:01;5.20;99.90
13960;DHT22;7052;51.050;3.716;2024-03-06T06:28:28;5.30;99.90
13960;DHT22;7052;51.050;3.716;2024-03-06T06:30:55;5.20;99.90
13960;DHT22;7052;51.050;3.716;2024-03-06T06:33:22;5.30;99.90
13960;DHT22;7052;51.050;3.716;2024-03-06T06:35:49;5.30;99.90
13960;DHT22;7052;51.050;3.716;2024-03-06T06:38:18;5.30;99.90
13960;DHT22;7052;51.050;3.716;2024-03-06T06:40:49;5.30;99.90
13960;DHT22;7052;51.050;3.716;2024-03-06T06:43:16;5.30;99.90
13960;DHT22;7052;51.050;3.716;2024-03-06T06:45:43;5.40;99.90
13960;DHT22;7052;51.050;3.716;2024-03-06T06:48:10;5.40;99.90
13960;DHT22;7052;51.050;3.716;2024-03-06T06:50:38;5.40;99.90
13960;DHT22;7052;51.050;3.716;2024-03-06T06:53:05;5.50;99.90
13960;DHT22;7052;51.050;3.716;2024-03-06T06:55:32;5.50;99.90
13960;DHT22;7052;51.050;3.716;2024-03-06T06:58:01;5.60;99.90
13960;DHT22;7052;51.050;3.716;2024-03-06T07:00:28;5.70;99.90
13960;DHT22;7052;51.050;3.716;2024-03-06T07:02:57;5.80;99.90
13960;DHT22;7052;51.050;3.716;2024-03-06T07:05:24;5.90;99.90
13960;DHT22;7052;51.050;3.716;2024-03-06T07:07:53;6.00;99.90
13960;DHT22;7052;51.050;3.716;2024-03-06T07:10:20;6.00;99.90
13960;DHT22;7052;51.050;3.716;2024-03-06T07:12:47;6.10;99.90
13960;DHT22;7052;51.050;3.716;2024-03-06T07:15:23;6.10;99.90
13960;DHT22;7052;51.050;3.716;2024-03-06T07:17:50;6.20;99.90
13960;DHT22;7052;51.050;3.716;2024-03-06T07:20:17;6.20;99.90
13960;DHT22;7052;51.050;3.716;2024-03-06T07:22:44;6.30;99.90
13960;DHT22;7052;51.050;3.716;2024-03-06T07:25:11;6.40;99.90
13960;DHT22;7052;51.050;3.716;2024-03-06T07:27:39;6.40;99.90
13960;DHT22;7052;51.050;3.716;2024-03-06T07:30:07;6.50;99.90
13960;DHT22;7052;51.050;3.716;2024-03-06T07:32:36;6.60;99.90
13960;DHT22;7052;51.050;3.716;2024-03-06T07:35:03;6.60;99.90
13960;DHT22;7052;51.050;3.716;2024-03-06T07:37:31;6.70;99.90
13960;DHT22;7052;51.050;3.716;2024-03-06T07:40:00;6.70;99.90
13960;DHT22;7052;51.050;3.716;2024-03-06T07:42:27;6.80;99.90
13960;DHT22;7052;51.050;3.716;2024-03-06T07:44:55;6.80;99.90
13960;DHT22;7052;51.050;3.716;2024-03-06T07:47:21;6.90;99.90
13960;DHT22;7052;51.050;3.716;2024-03-06T07:49:50;6.90;99.90
13960;DHT22;7052;51.050;3.716;2024-03-06T07:52:17;6.90;99.90
13960;DHT22;7052;51.050;3.716;2024-03-06T07:54:45;6.90;99.90
13960;DHT22;7052;51.050;3.716;2024-03-06T07:57:12;6.90;99.90
13960;DHT22;7052;51.050;3.716;2024-03-06T07:59:39;6.90;99.90
13960;DHT22;7052;51.050;3.716;2024-03-06T08:02:06;7.00;99.90
13960;DHT22;7052;51.050;3.716;2024-03-06T08:04:33;7.00;99.90
13960;DHT22;7052;51.050;3.716;2024-03-06T08:07:02;7.00;99.90
13960;DHT22;7052;51.050;3.716;2024-03-06T08:09:29;7.10;99.90
13960;DHT22;7052;51.050;3.716;2024-03-06T08:11:58;7.10;99.90
13960;DHT22;7052;51.050;3.716;2024-03-06T08:14:25;7.40;99.90
13960;DHT22;7052;51.050;3.716;2024-03-06T08:16:51;7.30;99.90
13960;DHT22;7052;51.050;3.716;2024-03-06T08:19:19;7.60;99.90
13960;DHT22;7052;51.050;3.716;2024-03-06T08:21:46;7.30;99.90
13960;DHT22;7052;51.050;3.716;2024-03-06T08:24:14;7.30;99.90
13960;DHT22;7052;51.050;3.716;2024-03-06T08:26:42;7.40;99.90
13960;DHT22;7052;51.050;3.716;2024-03-06T08:29:09;7.30;99.90
13960;DHT22;7052;51.050;3.716;2024-03-06T08:31:36;7.40;99.90
13960;DHT22;7052;51.050;3.716;2024-03-06T08:34:03;7.40;99.90
13960;DHT22;7052;51.050;3.716;2024-03-06T08:36:30;7.40;99.90
13960;DHT22;7052;51.050;3.716;2024-03-06T08:38:57;7.40;99.90
13960;DHT22;7052;51.050;3.716;2024-03-06T08:41:26;7.40;99.90
13960;DHT22;7052;51.050;3.716;2024-03-06T08:43:53;7.50;99.90
13960;DHT22;7052;51.050;3.716;2024-03-06T08:46:20;7.50;99.90
13960;DHT22;7052;51.050;3.716;2024-03-06T08:48:47;7.50;99.90
13960;DHT22;7052;51.050;3.716;2024-03-06T08:51:15;7.60;99.90
13960;DHT22;7052;51.050;3.716;2024-03-06T08:53:42;7.70;99.90
13960;DHT22;7052;51.050;3.716;2024-03-06T08:56:10;7.70;99.90
13960;DHT22;7052;51.050;3.716;2024-03-06T08:58:39;7.70;99.90
13960;DHT22;7052;51.050;3.716;2024-03-06T09:01:06;7.80;99.90
13960;DHT22;7052;51.050;3.716;2024-03-06T09:03:33;7.90;99.90
13960;DHT22;7052;51.050;3.716;2024-03-06T09:06:01;7.90;99.90
13960;DHT22;7052;51.050;3.716;2024-03-06T09:08:28;8.00;99.90
13960;DHT22;7052;51.050;3.716;2024-03-06T09:10:57;8.00;99.90
13960;DHT22;7052;51.050;3.716;2024-03-06T09:13:25;8.00;99.90
13960;DHT22;7052;51.050;3.716;2024-03-06T09:15:53;8.10;99.90
13960;DHT22;7052;51.050;3.716;2024-03-06T09:18:22;8.20;99.90
13960;DHT22;7052;51.050;3.716;2024-03-06T09:20:49;8.20;99.90
13960;DHT22;7052;51.050;3.716;2024-03-06T09:23:16;8.30;99.90
13960;DHT22;7052;51.050;3.716;2024-03-06T09:25:43;8.30;99.90
13960;DHT22;7052;51.050;3.716;2024-03-06T09:28:11;8.30;99.90
13960;DHT22;7052;51.050;3.716;2024-03-06T09:30:38;8.50;99.90
13960;DHT22;7052;51.050;3.716;2024-03-06T09:33:06;8.50;99.90
13960;DHT22;7052;51.050;3.716;2024-03-06T09:35:34;8.60;99.90
13960;DHT22;7052;51.050;3.716;2024-03-06T09:38:01;8.60;99.90
13960;DHT22;7052;51.050;3.716;2024-03-06T09:40:28;8.80;99.90
13960;DHT22;7052;51.050;3.716;2024-03-06T09:42:56;8.90;99.90
13960;DHT22;7052;51.050;3.716;2024-03-06T09:45:24;9.10;99.90
13960;DHT22;7052;51.050;3.716;2024-03-06T09:47:51;9.20;99.90
13960;DHT22;7052;51.050;3.716;2024-03-06T09:50:23;9.20;99.90
13960;DHT22;7052;51.050;3.716;2024-03-06T09:52:51;9.20;99.90
13960;DHT22;7052;51.050;3.716;2024-03-06T09:55:19;9.10;99.90
13960;DHT22;7052;51.050;3.716;2024-03-06T09:57:47;9.10;99.90
13960;DHT22;7052;51.050;3.716;2024-03-06T10:00:14;9.10;99.90
13960;DHT22;7052;51.050;3.716;2024-03-06T10:02:48;9.10;99.90
13960;DHT22;7052;51.050;3.716;2024-03-06T10:05:22;9.10;99.90
13960;DHT22;7052;51.050;3.716;2024-03-06T10:07:50;9.00;99.90
13960;DHT22;7052;51.050;3.716;2024-03-06T10:10:19;9.00;99.90
13960;DHT22;7052;51.050;3.716;2024-03-06T10:12:46;9.10;99.90
13960;DHT22;7052;51.050;3.716;2024-03-06T10:15:14;9.10;99.90
13960;DHT22;7052;51.050;3.716;2024-03-06T10:17:41;9.20;99.90
13960;DHT22;7052;51.050;3.716;2024-03-06T10:20:18;9.20;99.90
13960;DHT22;7052;51.050;3.716;2024-03-06T10:22:49;9.20;99.90
13960;DHT22;7052;51.050;3.716;2024-03-06T10:25:18;9.30;99.90
13960;DHT22;7052;51.050;3.716;2024-03-06T10:27:45;9.50;99.90
13960;DHT22;7052;51.050;3.716;2024-03-06T10:30:13;9.80;99.90
13960;DHT22;7052;51.050;3.716;2024-03-06T10:32:42;9.60;99.90
13960;DHT22;7052;51.050;3.716;2024-03-06T10:35:18;9.70;99.90
13960;DHT22;7052;51.050;3.716;2024-03-06T10:37:45;9.90;99.90
13960;DHT22;7052;51.050;3.716;2024-03-06T10:40:15;10.10;99.90
13960;DHT22;7052;51.050;3.716;2024-03-06T10:42:46;10.20;99.90
13960;DHT22;7052;51.050;3.716;2024-03-06T10:45:14;10.30;99.90
13960;DHT22;7052;51.050;3.716;2024-03-06T10:47:45;10.30;99.90
13960;DHT22;7052;51.050;3.716;2024-03-06T10:50:14;10.40;99.90
13960;DHT22;7052;51.050;3.716;2024-03-06T10:52:42;10.60;99.90
13960;DHT22;7052;51.050;3.716;2024-03-06T10:55:15;10.70;99.90
13960;DHT22;7052;51.050;3.716;2024-03-06T10:57:44;10.80;99.90
13960;DHT22;7052;51.050;3.716;2024-03-06T11:00:13;11.00;99.90
13960;DHT22;7052;51.050;3.716;2024-03-06T11:02:46;11.00;99.90
13960;DHT22;7052;51.050;3.716;2024-03-06T11:05:15;11.00;99.90
13960;DHT22;7052;51.050;3.716;2024-03-06T11:07:42;10.80;99.90
13960;DHT22;7052;51.050;3.716;2024-03-06T11:10:10;10.60;99.90
13960;DHT22;7052;51.050;3.716;2024-03-06T11:12:43;10.50;99.90
13960;DHT22;7052;51.050;3.716;2024-03-06T11:15:14;10.40;99.90
13960;DHT22;7052;51.050;3.716;2024-03-06T11:17:43;10.40;99.90
13960;DHT22;7052;51.050;3.716;2024-03-06T11:20:15;10.30;99.90
13960;DHT22;7052;51.050;3.716;2024-03-06T11:23:04;10.30;99.90
13960;DHT22;7052;51.050;3.716;2024-03-06T11:26:03;10.30;99.90
13960;DHT22;7052;51.050;3.716;2024-03-06T11:28:32;10.30;99.90
13960;DHT22;7052;51.050;3.716;2024-03-06T11:31:04;10.30;99.90
13960;DHT22;7052;51.050;3.716;2024-03-06T11:33:38;10.50;99.90
13960;DHT22;7052;51.050;3.716;2024-03-06T11:36:19;10.70;99.90
13960;DHT22;7052;51.050;3.716;2024-03-06T11:38:53;11.00;99.90
13960;DHT22;7052;51.050;3.716;2024-03-06T11:41:22;11.20;99.90
13960;DHT22;7052;51.050;3.716;2024-03-06T11:43:53;11.50;96.70
13960;DHT22;7052;51.050;3.716;2024-03-06T11:46:21;11.60;96.00
13960;DHT22;7052;51.050;3.716;2024-03-06T11:48:54;11.70;95.30
13960;DHT22;7052;51.050;3.716;2024-03-06T11:51:22;11.70;94.40
13960;DHT22;7052;51.050;3.716;2024-03-06T11:53:52;11.60;94.40
13960;DHT22;7052;51.050;3.716;2024-03-06T11:56:20;11.60;93.90
13960;DHT22;7052;51.050;3.716;2024-03-06T11:58:47;11.50;94.10
13960;DHT22;7052;51.050;3.716;2024-03-06T12:01:16;11.50;94.30
13960;DHT22;7052;51.050;3.716;2024-03-06T12:03:43;11.60;94.30
13960;DHT22;7052;51.050;3.716;2024-03-06T12:06:11;11.70;92.90
13960;DHT22;7052;51.050;3.716;2024-03-06T12:08:39;11.70;92.30
13960;DHT22;7052;51.050;3.716;2024-03-06T12:11:07;11.80;92.50
13960;DHT22;7052;51.050;3.716;2024-03-06T12:13:34;11.90;92.60
13960;DHT22;7052;51.050;3.716;2024-03-06T12:16:05;11.80;91.40
13960;DHT22;7052;51.050;3.716;2024-03-06T12:18:34;11.70;91.80
13960;DHT22;7052;51.050;3.716;2024-03-06T12:21:02;11.70;92.20
13960;DHT22;7052;51.050;3.716;2024-03-06T12:23:29;11.70;92.20
13960;DHT22;7052;51.050;3.716;2024-03-06T12:26:03;11.70;92.20
13960;DHT22;7052;51.050;3.716;2024-03-06T12:28:30;11.90;92.30
13960;DHT22;7052;51.050;3.716;2024-03-06T12:31:02;12.00;92.00
13960;DHT22;7052;51.050;3.716;2024-03-06T12:33:29;12.10;91.20
13960;DHT22;7052;51.050;3.716;2024-03-06T12:36:06;12.10;90.90
13960;DHT22;7052;51.050;3.716;2024-03-06T12:38:36;12.20;89.80
13960;DHT22;7052;51.050;3.716;2024-03-06T12:41:05;12.20;89.30
13960;DHT22;7052;51.050;3.716;2024-03-06T12:43:32;12.30;89.70
13960;DHT22;7052;51.050;3.716;2024-03-06T12:46:00;12.40;89.00
13960;DHT22;7052;51.050;3.716;2024-03-06T12:48:28;12.40;88.80
13960;DHT22;7052;51.050;3.716;2024-03-06T12:50:55;12.50;87.00
13960;DHT22;7052;51.050;3.716;2024-03-06T12:53:31;12.60;84.40
13960;DHT22;7052;51.050;3.716;2024-03-06T12:55:58;12.70;82.70
13960;DHT22;7052;51.050;3.716;2024-03-06T12:58:25;12.90;77.50
13960;DHT22;7052;51.050;3.716;2024-03-06T13:00:52;12.90;75.50
13960;DHT22;7052;51.050;3.716;2024-03-06T13:03:20;13.00;73.70
13960;DHT22;7052;51.050;3.716;2024-03-06T13:05:47;13.10;69.10
13960;DHT22;7052;51.050;3.716;2024-03-06T13:08:14;13.30;68.40
13960;DHT22;7052;51.050;3.716;2024-03-06T13:10:45;13.40;62.20
13960;DHT22;7052;51.050;3.716;2024-03-06T13:13:12;13.60;66.30
13960;DHT22;7052;51.050;3.716;2024-03-06T13:15:39;13.80;66.20
13960;DHT22;7052;51.050;3.716;2024-03-06T13:18:06;13.90;65.30
13960;DHT22;7052;51.050;3.716;2024-03-06T13:20:34;14.00;65.40
13960;DHT22;7052;51.050;3.716;2024-03-06T13:23:01;13.90;64.20
13960;DHT22;7052;51.050;3.716;2024-03-06T13:25:28;13.90;65.50
13960;DHT22;7052;51.050;3.716;2024-03-06T13:27:56;13.90;65.80
13960;DHT22;7052;51.050;3.716;2024-03-06T13:30:24;13.80;63.90
13960;DHT22;7052;51.050;3.716;2024-03-06T13:32:51;13.70;63.30
13960;DHT22;7052;51.050;3.716;2024-03-06T13:35:19;13.60;64.80
13960;DHT22;7052;51.050;3.716;2024-03-06T13:37:47;13.50;66.30
13960;DHT22;7052;51.050;3.716;2024-03-06T13:40:15;13.50;67.50
13960;DHT22;7052;51.050;3.716;2024-03-06T13:42:44;13.30;66.60
13960;DHT22;7052;51.050;3.716;2024-03-06T13:45:15;13.30;65.30
13960;DHT22;7052;51.050;3.716;2024-03-06T13:47:43;13.20;64.50
13960;DHT22;7052;51.050;3.716;2024-03-06T13:50:11;13.20;66.10
13960;DHT22;7052;51.050;3.716;2024-03-06T13:52:38;13.10;68.20
13960;DHT22;7052;51.050;3.716;2024-03-06T13:55:07;13.20;68.50
13960;DHT22;7052;51.050;3.716;2024-03-06T13:57:35;13.10;69.30
13960;DHT22;7052;51.050;3.716;2024-03-06T14:00:04;13.10;68.40
13960;DHT22;7052;51.050;3.716;2024-03-06T14:02:33;13.00;68.90
13960;DHT22;7052;51.050;3.716;2024-03-06T14:05:00;12.90;70.40
13960;DHT22;7052;51.050;3.716;2024-03-06T14:07:26;12.90;71.30
13960;DHT22;7052;51.050;3.716;2024-03-06T14:09:53;13.10;71.80
13960;DHT22;7052;51.050;3.716;2024-03-06T14:12:22;13.30;69.50
13960;DHT22;7052;51.050;3.716;2024-03-06T14:14:49;13.40;68.60
13960;DHT22;7052;51.050;3.716;2024-03-06T14:17:16;13.50;67.40
13960;DHT22;7052;51.050;3.716;2024-03-06T14:19:45;13.50;65.90
13960;DHT22;7052;51.050;3.716;2024-03-06T14:22:11;13.40;64.80
13960;DHT22;7052;51.050;3.716;2024-03-06T14:24:38;13.20;64.60
13960;DHT22;7052;51.050;3.716;2024-03-06T14:27:06;13.10;66.40
13960;DHT22;7052;51.050;3.716;2024-03-06T14:29:34;12.90;66.50
13960;DHT22;7052;51.050;3.716;2024-03-06T14:32:01;12.90;67.90
13960;DHT22;7052;51.050;3.716;2024-03-06T14:34:28;12.80;66.70
13960;DHT22;7052;51.050;3.716;2024-03-06T14:36:56;12.70;68.30
13960;DHT22;7052;51.050;3.716;2024-03-06T14:39:24;12.60;69.30
13960;DHT22;7052;51.050;3.716;2024-03-06T14:41:51;12.50;70.20
13960;DHT22;7052;51.050;3.716;2024-03-06T14:44:18;12.40;71.00
13960;DHT22;7052;51.050;3.716;2024-03-06T14:46:47;12.40;71.10
13960;DHT22;7052;51.050;3.716;2024-03-06T14:49:13;12.40;72.20
13960;DHT22;7052;51.050;3.716;2024-03-06T14:51:44;12.30;71.70
13960;DHT22;7052;51.050;3.716;2024-03-06T14:54:13;12.30;71.60
13960;DHT22;7052;51.050;3.716;2024-03-06T14:56:41;12.20;72.10
13960;DHT22;7052;51.050;3.716;2024-03-06T14:59:08;12.10;73.40
13960;DHT22;7052;51.050;3.716;2024-03-06T15:01:35;12.10;74.20
13960;DHT22;7052;51.050;3.716;2024-03-06T15:04:03;12.10;73.30
13960;DHT22;7052;51.050;3.716;2024-03-06T15:06:31;12.00;73.80
13960;DHT22;7052;51.050;3.716;2024-03-06T15:08:58;11.90;73.40
13960;DHT22;7052;51.050;3.716;2024-03-06T15:11:26;11.90;74.50
13960;DHT22;7052;51.050;3.716;2024-03-06T15:13:57;11.80;75.10
13960;DHT22;7052;51.050;3.716;2024-03-06T15:16:24;11.80;75.70
13960;DHT22;7052;51.050;3.716;2024-03-06T15:18:51;11.80;75.50
13960;DHT22;7052;51.050;3.716;2024-03-06T15:21:22;11.90;74.90
13960;DHT22;7052;51.050;3.716;2024-03-06T15:23:49;11.90;73.90
13960;DHT22;7052;51.050;3.716;2024-03-06T15:26:18;12.00;73.30
13960;DHT22;7052;51.050;3.716;2024-03-06T15:28:46;12.00;66.90
13960;DHT22;7052;51.050;3.716;2024-03-06T15:31:16;11.90;66.90
13960;DHT22;7052;51.050;3.716;2024-03-06T15:33:43;11.90;65.60
13960;DHT22;7052;51.050;3.716;2024-03-06T15:36:12;12.00;66.40
13960;DHT22;7052;51.050;3.716;2024-03-06T15:38:39;12.00;67.10
13960;DHT22;7052;51.050;3.716;2024-03-06T15:41:06;12.00;66.20
13960;DHT22;7052;51.050;3.716;2024-03-06T15:43:34;12.00;66.70
13960;DHT22;7052;51.050;3.716;2024-03-06T15:46:03;12.10;67.20
13960;DHT22;7052;51.050;3.716;2024-03-06T15:48:30;12.10;66.20
13960;DHT22;7052;51.050;3.716;2024-03-06T15:50:59;12.10;66.10
13960;DHT22;7052;51.050;3.716;2024-03-06T15:53:26;12.10;66.10
13960;DHT22;7052;51.050;3.716;2024-03-06T15:55:55;12.00;66.10
13960;DHT22;7052;51.050;3.716;2024-03-06T15:58:23;12.00;65.80
13960;DHT22;7052;51.050;3.716;2024-03-06T16:00:50;12.00;65.90
13960;DHT22;7052;51.050;3.716;2024-03-06T16:03:19;12.00;63.70
13960;DHT22;7052;51.050;3.716;2024-03-06T16:05:47;12.10;65.10